sensor_id;sensor_type;location;lat;lon;timestamp;temperature;humidity
38582;DHT22;24349;53.720;10.014;2023-06-24T00:01:35;16.90;99.90
38582;DHT22;24349;53.720;10.014;2023-06-24T00:04:02;16.80;99.90
38582;DHT22;24349;53.720;10.014;2023-06-24T00:06:27;16.80;99.90
38582;DHT22;24349;53.720;10.014;2023-06-24T00:08:53;16.80;99.90
38582;DHT22;24349;53.720;10.014;2023-06-24T00:11:27;16.80;99.90
38582;DHT22;24349;53.720;10.014;2023-06-24T00:13:53;16.70;99.90
38582;DHT22;24349;53.720;10.014;2023-06-24T00:16:19;16.60;99.90
38582;DHT22;24349;53.720;10.014;2023-06-24T00:18:54;16.60;99.90
38582;DHT22;24349;53.720;10.014;2023-06-24T00:21:20;16.60;99.90
38582;DHT22;24349;53.720;10.014;2023-06-24T00:23:45;16.50;99.90
38582;DHT22;24349;53.720;10.014;2023-06-24T00:26:13;16.40;99.90
38582;DHT22;24349;53.720;10.014;2023-06-24T00:28:39;16.50;99.90
38582;DHT22;24349;53.720;10.014;2023-06-24T00:31:05;16.50;99.90
38582;DHT22;24349;53.720;10.014;2023-06-24T00:33:30;16.40;99.90
38582;DHT22;24349;53.720;10.014;2023-06-24T00:36:01;16.40;99.90
38582;DHT22;24349;53.720;10.014;2023-06-24T00:38:27;16.40;99.90
38582;DHT22;24349;53.720;10.014;2023-06-24T00:40:54;16.30;99.90
38582;DHT22;24349;53.720;10.014;2023-06-24T00:43:20;16.30;99.90
38582;DHT22;24349;53.720;10.014;2023-06-24T00:45:45;16.30;99.90
38582;DHT22;24349;53.720;10.014;2023-06-24T00:48:14;16.30;99.90
38582;DHT22;24349;53.720;10.014;2023-06-24T00:50:40;16.30;99.90
38582;DHT22;24349;53.720;10.014;2023-06-24T00:53:11;16.30;99.90
38582;DHT22;24349;53.720;10.014;2023-06-24T00:55:37;16.30;99.90
38582;DHT22;24349;53.720;10.014;2023-06-24T00:58:04;16.30;99.90
38582;DHT22;24349;53.720;10.014;2023-06-24T01:00:30;16.20;99.90
38582;DHT22;24349;53.720;10.014;2023-06-24T01:02:58;16.20;99.90
38582;DHT22;24349;53.720;10.014;2023-06-24T01:05:24;16.20;99.90
38582;DHT22;24349;53.720;10.014;2023-06-24T01:07:51;16.20;99.90
38582;DHT22;24349;53.720;10.014;2023-06-24T01:10:21;16.20;99.90
38582;DHT22;24349;53.720;10.014;2023-06-24T01:12:48;16.10;99.90
38582;DHT22;24349;53.720;10.014;2023-06-24T01:15:14;16.00;99.90
38582;DHT22;24349;53.720;10.014;2023-06-24T01:20:18;16.00;99.90
38582;DHT22;24349;53.720;10.014;2023-06-24T01:25:57;15.90;99.90
38582;DHT22;24349;53.720;10.014;2023-06-24T01:29:21;15.90;99.90
38582;DHT22;24349;53.720;10.014;2023-06-24T01:34:32;15.80;99.90
38582;DHT22;24349;53.720;10.014;2023-06-24T01:37:17;15.80;99.90
38582;DHT22;24349;53.720;10.014;2023-06-24T01:39:49;15.70;99.90
38582;DHT22;24349;53.720;10.014;2023-06-24T01:42:17;15.80;99.90
38582;DHT22;24349;53.720;10.014;2023-06-24T01:44:44;15.80;99.90
38582;DHT22;24349;53.720;10.014;2023-06-24T01:47:11;15.80;99.90
38582;DHT22;24349;53.720;10.014;2023-06-24T01:49:40;15.80;99.90
38582;DHT22;24349;53.720;10.014;2023-06-24T01:52:08;15.80;99.90
38582;DHT22;24349;53.720;10.014;2023-06-24T01:54:36;15.70;99.90
38582;DHT22;24349;53.720;10.014;2023-06-24T01:57:04;15.70;99.90
38582;DHT22;24349;53.720;10.014;2023-06-24T01:59:31;15.70;99.90
38582;DHT22;24349;53.720;10.014;2023-06-24T02:01:58;15.60;99.90
38582;DHT22;24349;53.720;10.014;2023-06-24T02:04:27;15.60;99.90
38582;DHT22;24349;53.720;10.014;2023-06-24T02:06:59;15.50;99.90
38582;DHT22;24349;53.720;10.014;2023-06-24T02:09:28;15.50;99.90
38582;DHT22;24349;53.720;10.014;2023-06-24T02:11:57;15.40;99.90
38582;DHT22;24349;53.720;10.014;2023-06-24T02:14:24;15.30;99.90
38582;DHT22;24349;53.720;10.014;2023-06-24T02:16:50;15.20;99.90
38582;DHT22;24349;53.720;10.014;2023-06-24T02:19:22;15.10;99.90
38582;DHT22;24349;53.720;10.014;2023-06-24T02:21:50;15.00;99.90
38582;DHT22;24349;53.720;10.014;2023-06-24T02:24:18;15.00;99.90
38582;DHT22;24349;53.720;10.014;2023-06-24T02:26:45;14.90;99.90
38582;DHT22;24349;53.720;10.014;2023-06-24T02:29:12;14.90;99.90
38582;DHT22;24349;53.720;10.014;2023-06-24T02:31:38;14.80;99.90
38582;DHT22;24349;53.720;10.014;2023-06-24T02:34:04;14.80;99.90
38582;DHT22;24349;53.720;10.014;2023-06-24T02:36:30;14.70;99.90
38582;DHT22;24349;53.720;10.014;2023-06-24T02:38:55;14.60;99.90
38582;DHT22;24349;53.720;10.014;2023-06-24T02:41:21;14.60;99.90
38582;DHT22;24349;53.720;10.014;2023-06-24T02:43:46;14.60;99.90
38582;DHT22;24349;53.720;10.014;2023-06-24T02:46:13;14.50;99.90
38582;DHT22;24349;53.720;10.014;2023-06-24T02:48:40;14.40;99.90
38582;DHT22;24349;53.720;10.014;2023-06-24T02:51:07;14.40;99.90
38582;DHT22;24349;53.720;10.014;2023-06-24T02:53:36;14.40;99.90
38582;DHT22;24349;53.720;10.014;2023-06-24T02:56:04;14.40;99.90
38582;DHT22;24349;53.720;10.014;2023-06-24T02:58:30;14.40;99.90
38582;DHT22;24349;53.720;10.014;2023-06-24T03:00:59;14.40;99.90
38582;DHT22;24349;53.720;10.014;2023-06-24T03:03:26;14.40;99.90
38582;DHT22;24349;53.720;10.014;2023-06-24T03:05:54;14.40;99.90
38582;DHT22;24349;53.720;10.014;2023-06-24T03:08:20;14.40;99.90
38582;DHT22;24349;53.720;10.014;2023-06-24T03:10:46;14.40;99.90
38582;DHT22;24349;53.720;10.014;2023-06-24T03:13:11;14.40;99.90
38582;DHT22;24349;53.720;10.014;2023-06-24T03:15:37;14.40;99.90
38582;DHT22;24349;53.720;10.014;2023-06-24T03:18:03;14.30;99.90
38582;DHT22;24349;53.720;10.014;2023-06-24T03:20:28;14.20;99.90
38582;DHT22;24349;53.720;10.014;2023-06-24T03:23:01;14.20;99.90
38582;DHT22;24349;53.720;10.014;2023-06-24T03:25:26;14.30;99.90
38582;DHT22;24349;53.720;10.014;2023-06-24T03:27:52;14.30;99.90
38582;DHT22;24349;53.720;10.014;2023-06-24T03:30:18;14.20;99.90
38582;DHT22;24349;53.720;10.014;2023-06-24T03:32:43;14.20;99.90
38582;DHT22;24349;53.720;10.014;2023-06-24T03:35:12;14.20;99.90
38582;DHT22;24349;53.720;10.014;2023-06-24T03:37:38;14.20;99.90
38582;DHT22;24349;53.720;10.014;2023-06-24T03:40:04;14.20;99.90
38582;DHT22;24349;53.720;10.014;2023-06-24T03:42:30;14.30;99.90
38582;DHT22;24349;53.720;10.014;2023-06-24T03:44:56;14.30;99.90
38582;DHT22;24349;53.720;10.014;2023-06-24T03:47:21;14.30;99.90
38582;DHT22;24349;53.720;10.014;2023-06-24T03:49:47;14.40;99.90
38582;DHT22;24349;53.720;10.014;2023-06-24T03:52:13;14.50;99.90
38582;DHT22;24349;53.720;10.014;2023-06-24T03:54:38;14.50;99.90
38582;DHT22;24349;53.720;10.014;2023-06-24T03:57:06;14.50;99.90
38582;DHT22;24349;53.720;10.014;2023-06-24T03:59:32;14.60;99.90
38582;DHT22;24349;53.720;10.014;2023-06-24T04:01:57;14.60;99.90
38582;DHT22;24349;53.720;10.014;2023-06-24T04:04:23;14.70;99.90
38582;DHT22;24349;53.720;10.014;2023-06-24T04:06:49;14.80;99.90
38582;DHT22;24349;53.720;10.014;2023-06-24T04:09:14;14.80;99.90
38582;DHT22;24349;53.720;10.014;2023-06-24T04:11:40;14.90;99.90
38582;DHT22;24349;53.720;10.014;2023-06-24T04:14:05;15.00;99.90
38582;DHT22;24349;53.720;10.014;2023-06-24T04:16:32;15.10;99.90
38582;DHT22;24349;53.720;10.014;2023-06-24T04:18:58;15.30;99.90
38582;DHT22;24349;53.720;10.014;2023-06-24T04:21:24;15.40;99.90
38582;DHT22;24349;53.720;10.014;2023-06-24T04:23:51;15.50;99.90
38582;DHT22;24349;53.720;10.014;2023-06-24T04:26:16;15.60;99.90
38582;DHT22;24349;53.720;10.014;2023-06-24T04:28:42;15.80;99.90
38582;DHT22;24349;53.720;10.014;2023-06-24T04:31:08;15.90;99.90
38582;DHT22;24349;53.720;10.014;2023-06-24T04:33:33;16.00;99.90
38582;DHT22;24349;53.720;10.014;2023-06-24T04:35:59;16.10;99.90
38582;DHT22;24349;53.720;10.014;2023-06-24T04:38:25;16.20;99.90
38582;DHT22;24349;53.720;10.014;2023-06-24T04:40:51;16.30;99.90
38582;DHT22;24349;53.720;10.014;2023-06-24T04:43:16;16.40;99.90
38582;DHT22;24349;53.720;10.014;2023-06-24T04:45:42;16.40;99.90
38582;DHT22;24349;53.720;10.014;2023-06-24T04:48:08;16.40;99.90
38582;DHT22;24349;53.720;10.014;2023-06-24T04:50:33;16.30;99.90
38582;DHT22;24349;53.720;10.014;2023-06-24T04:52:59;16.20;99.90
38582;DHT22;24349;53.720;10.014;2023-06-24T04:55:27;16.30;99.90
38582;DHT22;24349;53.720;10.014;2023-06-24T04:57:55;16.40;99.90
38582;DHT22;24349;53.720;10.014;2023-06-24T05:00:20;16.70;99.90
38582;DHT22;24349;53.720;10.014;2023-06-24T05:02:48;16.80;99.90
38582;DHT22;24349;53.720;10.014;2023-06-24T05:05:14;17.00;99.90
38582;DHT22;24349;53.720;10.014;2023-06-24T05:07:39;17.20;99.90
38582;DHT22;24349;53.720;10.014;2023-06-24T05:10:06;17.30;99.90
38582;DHT22;24349;53.720;10.014;2023-06-24T05:12:31;17.30;99.90
38582;DHT22;24349;53.720;10.014;2023-06-24T05:14:57;17.10;99.90
38582;DHT22;24349;53.720;10.014;2023-06-24T05:17:23;17.10;99.90
38582;DHT22;24349;53.720;10.014;2023-06-24T05:19:49;17.10;99.90
38582;DHT22;24349;53.720;10.014;2023-06-24T05:22:14;17.30;99.90
38582;DHT22;24349;53.720;10.014;2023-06-24T05:24:40;17.60;99.90
38582;DHT22;24349;53.720;10.014;2023-06-24T05:27:07;17.90;99.90
38582;DHT22;24349;53.720;10.014;2023-06-24T05:29:33;18.00;99.90
38582;DHT22;24349;53.720;10.014;2023-06-24T05:31:59;18.10;99.90
38582;DHT22;24349;53.720;10.014;2023-06-24T05:34:27;18.20;99.90
38582;DHT22;24349;53.720;10.014;2023-06-24T05:36:52;18.10;99.90
38582;DHT22;24349;53.720;10.014;2023-06-24T05:39:19;18.20;99.90
38582;DHT22;24349;53.720;10.014;2023-06-24T05:41:45;18.20;99.90
38582;DHT22;24349;53.720;10.014;2023-06-24T05:44:10;18.00;99.90
38582;DHT22;24349;53.720;10.014;2023-06-24T05:46:36;18.10;99.90
38582;DHT22;24349;53.720;10.014;2023-06-24T05:49:02;18.60;99.90
38582;DHT22;24349;53.720;10.014;2023-06-24T05:51:28;19.00;99.90
38582;DHT22;24349;53.720;10.014;2023-06-24T05:53:54;19.40;99.90
38582;DHT22;24349;53.720;10.014;2023-06-24T05:56:20;19.50;99.90
38582;DHT22;24349;53.720;10.014;2023-06-24T05:58:47;19.80;99.90
38582;DHT22;24349;53.720;10.014;2023-06-24T06:01:13;20.00;99.90
38582;DHT22;24349;53.720;10.014;2023-06-24T06:03:38;20.20;99.90
38582;DHT22;24349;53.720;10.014;2023-06-24T06:06:04;20.00;99.90
38582;DHT22;24349;53.720;10.014;2023-06-24T06:08:30;19.80;99.90
38582;DHT22;24349;53.720;10.014;2023-06-24T06:10:55;19.70;99.90
38582;DHT22;24349;53.720;10.014;2023-06-24T06:13:21;19.80;99.90
38582;DHT22;24349;53.720;10.014;2023-06-24T06:15:47;19.70;99.90
38582;DHT22;24349;53.720;10.014;2023-06-24T06:18:12;19.50;99.90
38582;DHT22;24349;53.720;10.014;2023-06-24T06:20:38;20.00;99.90
38582;DHT22;24349;53.720;10.014;2023-06-24T06:23:04;20.10;99.90
38582;DHT22;24349;53.720;10.014;2023-06-24T06:25:29;20.20;99.90
38582;DHT22;24349;53.720;10.014;2023-06-24T06:27:55;20.70;99.90
38582;DHT22;24349;53.720;10.014;2023-06-24T06:30:21;21.00;99.90
38582;DHT22;24349;53.720;10.014;2023-06-24T06:32:46;20.80;99.90
38582;DHT22;24349;53.720;10.014;2023-06-24T06:35:12;20.60;99.90
38582;DHT22;24349;53.720;10.014;2023-06-24T06:37:37;20.40;99.90
38582;DHT22;24349;53.720;10.014;2023-06-24T06:40:03;20.40;99.90
38582;DHT22;24349;53.720;10.014;2023-06-24T06:42:29;20.70;99.90
38582;DHT22;24349;53.720;10.014;2023-06-24T06:44:55;21.40;99.90
38582;DHT22;24349;53.720;10.014;2023-06-24T06:47:21;22.00;99.90
38582;DHT22;24349;53.720;10.014;2023-06-24T06:49:46;22.50;99.90
38582;DHT22;24349;53.720;10.014;2023-06-24T06:52:12;22.60;99.90
38582;DHT22;24349;53.720;10.014;2023-06-24T06:54:38;22.60;99.90
38582;DHT22;24349;53.720;10.014;2023-06-24T06:57:04;22.00;99.90
38582;DHT22;24349;53.720;10.014;2023-06-24T06:59:30;22.60;99.90
38582;DHT22;24349;53.720;10.014;2023-06-24T07:01:56;23.30;99.90
38582;DHT22;24349;53.720;10.014;2023-06-24T07:04:22;23.10;99.90
38582;DHT22;24349;53.720;10.014;2023-06-24T07:06:50;23.40;99.90
38582;DHT22;24349;53.720;10.014;2023-06-24T07:09:16;23.50;99.90
38582;DHT22;24349;53.720;10.014;2023-06-24T07:11:43;23.70;99.90
38582;DHT22;24349;53.720;10.014;2023-06-24T07:14:08;23.00;99.90
38582;DHT22;24349;53.720;10.014;2023-06-24T07:16:36;22.90;99.90
38582;DHT22;24349;53.720;10.014;2023-06-24T07:19:01;23.40;99.90
38582;DHT22;24349;53.720;10.014;2023-06-24T07:21:27;24.30;99.90
38582;DHT22;24349;53.720;10.014;2023-06-24T07:23:53;24.60;99.90
38582;DHT22;24349;53.720;10.014;2023-06-24T07:26:19;25.10;99.90
38582;DHT22;24349;53.720;10.014;2023-06-24T07:28:44;25.00;99.90
38582;DHT22;24349;53.720;10.014;2023-06-24T07:31:11;24.60;99.90
38582;DHT22;24349;53.720;10.014;2023-06-24T07:33:37;24.90;99.90
38582;DHT22;24349;53.720;10.014;2023-06-24T07:36:02;24.80;99.90
38582;DHT22;24349;53.720;10.014;2023-06-24T07:38:29;24.70;99.90
38582;DHT22;24349;53.720;10.014;2023-06-24T07:40:55;24.30;99.90
38582;DHT22;24349;53.720;10.014;2023-06-24T07:43:21;24.40;99.90
38582;DHT22;24349;53.720;10.014;2023-06-24T07:45:46;25.00;99.90
38582;DHT22;24349;53.720;10.014;2023-06-24T07:48:12;25.20;99.90
38582;DHT22;24349;53.720;10.014;2023-06-24T07:50:38;24.90;99.90
38582;DHT22;24349;53.720;10.014;2023-06-24T07:53:04;24.60;99.90
38582;DHT22;24349;53.720;10.014;2023-06-24T07:55:30;24.90;99.90
38582;DHT22;24349;53.720;10.014;2023-06-24T07:57:56;25.40;99.90
38582;DHT22;24349;53.720;10.014;2023-06-24T08:00:23;26.10;99.90
38582;DHT22;24349;53.720;10.014;2023-06-24T08:02:49;26.60;99.90
38582;DHT22;24349;53.720;10.014;2023-06-24T08:05:15;26.80;99.90
38582;DHT22;24349;53.720;10.014;2023-06-24T08:07:44;25.70;99.90
38582;DHT22;24349;53.720;10.014;2023-06-24T08:10:09;24.80;99.90
38582;DHT22;24349;53.720;10.014;2023-06-24T08:12:35;24.50;99.90
38582;DHT22;24349;53.720;10.014;2023-06-24T08:15:01;24.30;99.90
38582;DHT22;24349;53.720;10.014;2023-06-24T08:17:26;24.40;99.90
38582;DHT22;24349;53.720;10.014;2023-06-24T08:19:52;24.90;99.90
38582;DHT22;24349;53.720;10.014;2023-06-24T08:22:17;25.00;99.90
38582;DHT22;24349;53.720;10.014;2023-06-24T08:24:43;24.70;99.90
38582;DHT22;24349;53.720;10.014;2023-06-24T08:27:09;24.20;1.00
38582;DHT22;24349;53.720;10.014;2023-06-24T08:29:34;24.60;99.90
38582;DHT22;24349;53.720;10.014;2023-06-24T08:32:00;24.30;99.90
38582;DHT22;24349;53.720;10.014;2023-06-24T08:34:26;24.10;99.90
38582;DHT22;24349;53.720;10.014;2023-06-24T08:36:52;23.60;99.90
38582;DHT22;24349;53.720;10.014;2023-06-24T08:39:17;23.80;1.00
38582;DHT22;24349;53.720;10.014;2023-06-24T08:41:43;24.50;1.00
38582;DHT22;24349;53.720;10.014;2023-06-24T08:44:09;24.80;99.90
38582;DHT22;24349;53.720;10.014;2023-06-24T08:46:34;25.10;1.00
38582;DHT22;24349;53.720;10.014;2023-06-24T08:51:46;26.20;99.90
38582;DHT22;24349;53.720;10.014;2023-06-24T08:54:15;25.20;99.90
38582;DHT22;24349;53.720;10.014;2023-06-24T08:56:41;24.60;99.90
38582;DHT22;24349;53.720;10.014;2023-06-24T08:59:08;24.60;99.90
38582;DHT22;24349;53.720;10.014;2023-06-24T09:01:34;24.20;99.90
38582;DHT22;24349;53.720;10.014;2023-06-24T09:03:59;23.90;99.90
38582;DHT22;24349;53.720;10.014;2023-06-24T09:06:25;24.40;99.90
38582;DHT22;24349;53.720;10.014;2023-06-24T09:08:55;24.50;99.90
38582;DHT22;24349;53.720;10.014;2023-06-24T09:11:25;24.30;99.90
38582;DHT22;24349;53.720;10.014;2023-06-24T09:13:59;24.00;99.90
38582;DHT22;24349;53.720;10.014;2023-06-24T09:16:26;23.90;99.90
38582;DHT22;24349;53.720;10.014;2023-06-24T09:18:53;24.20;99.90
38582;DHT22;24349;53.720;10.014;2023-06-24T09:21:25;24.80;20.90
38582;DHT22;24349;53.720;10.014;2023-06-24T09:23:56;25.00;99.90
38582;DHT22;24349;53.720;10.014;2023-06-24T09:26:25;24.80;99.90
38582;DHT22;24349;53.720;10.014;2023-06-24T09:28:52;24.70;99.90
38582;DHT22;24349;53.720;10.014;2023-06-24T09:31:18;24.40;99.90
38582;DHT22;24349;53.720;10.014;2023-06-24T09:33:44;24.30;99.90
38582;DHT22;24349;53.720;10.014;2023-06-24T09:36:14;24.50;1.00
38582;DHT22;24349;53.720;10.014;2023-06-24T09:38:44;24.90;99.90
38582;DHT22;24349;53.720;10.014;2023-06-24T09:41:10;24.70;99.90
38582;DHT22;24349;53.720;10.014;2023-06-24T09:43:36;25.00;99.90
38582;DHT22;24349;53.720;10.014;2023-06-24T09:46:05;25.10;99.90
38582;DHT22;24349;53.720;10.014;2023-06-24T09:48:32;25.30;99.90
38582;DHT22;24349;53.720;10.014;2023-06-24T09:51:01;25.30;99.90
38582;DHT22;24349;53.720;10.014;2023-06-24T09:53:31;25.10;99.90
38582;DHT22;24349;53.720;10.014;2023-06-24T09:55:59;25.00;99.90
38582;DHT22;24349;53.720;10.014;2023-06-24T09:58:26;25.50;99.90
38582;DHT22;24349;53.720;10.014;2023-06-24T10:00:54;26.00;99.90
38582;DHT22;24349;53.720;10.014;2023-06-24T10:03:20;26.50;99.90
38582;DHT22;24349;53.720;10.014;2023-06-24T10:05:47;26.80;99.90
38582;DHT22;24349;53.720;10.014;2023-06-24T10:08:13;27.30;99.90
38582;DHT22;24349;53.720;10.014;2023-06-24T10:10:39;26.70;99.90
38582;DHT22;24349;53.720;10.014;2023-06-24T10:13:05;26.30;99.90
38582;DHT22;24349;53.720;10.014;2023-06-24T10:15:32;25.70;99.90
38582;DHT22;24349;53.720;10.014;2023-06-24T10:18:01;25.90;99.90
38582;DHT22;24349;53.720;10.014;2023-06-24T10:20:28;25.70;81.30
38582;DHT22;24349;53.720;10.014;2023-06-24T10:22:54;26.10;1.00
38582;DHT22;24349;53.720;10.014;2023-06-24T10:25:20;25.90;99.90
38582;DHT22;24349;53.720;10.014;2023-06-24T10:27:53;26.30;54.20
38582;DHT22;24349;53.720;10.014;2023-06-24T10:30:19;26.70;99.90
38582;DHT22;24349;53.720;10.014;2023-06-24T10:32:51;26.40;99.90
38582;DHT22;24349;53.720;10.014;2023-06-24T10:35:26;26.20;99.90
38582;DHT22;24349;53.720;10.014;2023-06-24T10:38:00;26.40;99.90
38582;DHT22;24349;53.720;10.014;2023-06-24T10:40:39;26.50;7.00
38582;DHT22;24349;53.720;10.014;2023-06-24T10:45:50;27.50;99.90
38582;DHT22;24349;53.720;10.014;2023-06-24T10:48:17;27.70;99.90
38582;DHT22;24349;53.720;10.014;2023-06-24T10:50:45;27.50;99.90
38582;DHT22;24349;53.720;10.014;2023-06-24T10:53:12;27.10;99.90
38582;DHT22;24349;53.720;10.014;2023-06-24T10:55:39;27.00;99.90
38582;DHT22;24349;53.720;10.014;2023-06-24T10:58:08;27.70;99.90
38582;DHT22;24349;53.720;10.014;2023-06-24T11:00:34;27.60;99.90
38582;DHT22;24349;53.720;10.014;2023-06-24T11:03:14;27.30;99.90
38582;DHT22;24349;53.720;10.014;2023-06-24T11:05:41;27.10;99.90
38582;DHT22;24349;53.720;10.014;2023-06-24T11:08:10;26.40;99.90
38582;DHT22;24349;53.720;10.014;2023-06-24T11:10:46;26.80;99.90
38582;DHT22;24349;53.720;10.014;2023-06-24T11:13:13;27.20;99.90
38582;DHT22;24349;53.720;10.014;2023-06-24T11:15:39;27.60;99.90
38582;DHT22;24349;53.720;10.014;2023-06-24T11:18:08;27.70;99.90
38582;DHT22;24349;53.720;10.014;2023-06-24T11:20:36;27.90;99.90
38582;DHT22;24349;53.720;10.014;2023-06-24T11:23:05;28.20;99.90
38582;DHT22;24349;53.720;10.014;2023-06-24T11:25:31;28.00;99.90
38582;DHT22;24349;53.720;10.014;2023-06-24T11:27:57;28.00;99.90
38582;DHT22;24349;53.720;10.014;2023-06-24T11:30:22;27.50;99.90
38582;DHT22;24349;53.720;10.014;2023-06-24T11:32:48;27.20;99.90
38582;DHT22;24349;53.720;10.014;2023-06-24T11:35:15;26.80;99.90
38582;DHT22;24349;53.720;10.014;2023-06-24T11:37:42;26.80;99.90
38582;DHT22;24349;53.720;10.014;2023-06-24T11:40:09;27.00;99.90
38582;DHT22;24349;53.720;10.014;2023-06-24T11:42:40;27.20;99.90
38582;DHT22;24349;53.720;10.014;2023-06-24T11:45:10;27.40;99.90
38582;DHT22;24349;53.720;10.014;2023-06-24T11:47:40;28.00;99.90
38582;DHT22;24349;53.720;10.014;2023-06-24T11:50:07;28.00;99.90
38582;DHT22;24349;53.720;10.014;2023-06-24T11:55:02;28.20;99.90
38582;DHT22;24349;53.720;10.014;2023-06-24T12:00:14;28.30;99.90
38582;DHT22;24349;53.720;10.014;2023-06-24T12:02:40;28.50;99.90
38582;DHT22;24349;53.720;10.014;2023-06-24T12:05:06;28.50;99.90
38582;DHT22;24349;53.720;10.014;2023-06-24T12:07:32;28.90;99.90
38582;DHT22;24349;53.720;10.014;2023-06-24T12:09:57;29.70;99.90
38582;DHT22;24349;53.720;10.014;2023-06-24T12:12:23;29.30;99.90
38582;DHT22;24349;53.720;10.014;2023-06-24T12:14:48;29.00;99.90
38582;DHT22;24349;53.720;10.014;2023-06-24T12:17:14;29.10;99.90
38582;DHT22;24349;53.720;10.014;2023-06-24T12:19:39;28.90;99.90
38582;DHT22;24349;53.720;10.014;2023-06-24T12:22:05;29.30;99.90
38582;DHT22;24349;53.720;10.014;2023-06-24T12:24:31;29.60;99.90
38582;DHT22;24349;53.720;10.014;2023-06-24T12:26:56;29.90;99.90
38582;DHT22;24349;53.720;10.014;2023-06-24T12:29:22;30.30;99.90
38582;DHT22;24349;53.720;10.014;2023-06-24T12:31:47;29.60;99.80
38582;DHT22;24349;53.720;10.014;2023-06-24T12:34:13;28.10;99.90
38582;DHT22;24349;53.720;10.014;2023-06-24T12:36:39;27.70;99.90
38582;DHT22;24349;53.720;10.014;2023-06-24T12:39:04;27.20;99.90
38582;DHT22;24349;53.720;10.014;2023-06-24T12:41:30;27.60;26.30
38582;DHT22;24349;53.720;10.014;2023-06-24T12:43:55;28.30;99.90
38582;DHT22;24349;53.720;10.014;2023-06-24T12:46:21;28.40;99.90
38582;DHT22;24349;53.720;10.014;2023-06-24T12:48:46;28.20;99.90
38582;DHT22;24349;53.720;10.014;2023-06-24T12:51:12;27.40;99.90
38582;DHT22;24349;53.720;10.014;2023-06-24T12:53:38;27.20;15.30
38582;DHT22;24349;53.720;10.014;2023-06-24T12:56:03;27.90;99.90
38582;DHT22;24349;53.720;10.014;2023-06-24T12:58:29;28.40;1.00
38582;DHT22;24349;53.720;10.014;2023-06-24T13:00:55;28.30;99.90
38582;DHT22;24349;53.720;10.014;2023-06-24T13:03:20;27.60;99.90
38582;DHT22;24349;53.720;10.014;2023-06-24T13:05:46;27.20;1.00
38582;DHT22;24349;53.720;10.014;2023-06-24T13:08:12;26.80;57.50
38582;DHT22;24349;53.720;10.014;2023-06-24T13:10:38;26.80;99.90
38582;DHT22;24349;53.720;10.014;2023-06-24T13:13:04;27.20;99.90
38582;DHT22;24349;53.720;10.014;2023-06-24T13:15:29;27.10;99.90
38582;DHT22;24349;53.720;10.014;2023-06-24T13:17:56;27.20;1.00
38582;DHT22;24349;53.720;10.014;2023-06-24T13:20:22;27.00;99.90
38582;DHT22;24349;53.720;10.014;2023-06-24T13:22:47;26.70;88.70
38582;DHT22;24349;53.720;10.014;2023-06-24T13:25:13;27.00;99.90
38582;DHT22;24349;53.720;10.014;2023-06-24T13:27:41;27.90;84.00
38582;DHT22;24349;53.720;10.014;2023-06-24T13:30:07;28.70;1.00
38582;DHT22;24349;53.720;10.014;2023-06-24T13:32:33;28.80;99.90
38582;DHT22;24349;53.720;10.014;2023-06-24T13:34:59;28.30;99.90
38582;DHT22;24349;53.720;10.014;2023-06-24T13:37:24;28.50;99.90
38582;DHT22;24349;53.720;10.014;2023-06-24T13:39:50;28.40;99.90
38582;DHT22;24349;53.720;10.014;2023-06-24T13:42:16;28.20;99.90
38582;DHT22;24349;53.720;10.014;2023-06-24T13:44:41;27.90;99.90
38582;DHT22;24349;53.720;10.014;2023-06-24T13:47:07;27.60;1.00
38582;DHT22;24349;53.720;10.014;2023-06-24T13:49:33;27.20;1.00
38582;DHT22;24349;53.720;10.014;2023-06-24T13:51:58;26.80;29.70
38582;DHT22;24349;53.720;10.014;2023-06-24T13:54:24;27.30;99.90
38582;DHT22;24349;53.720;10.014;2023-06-24T13:56:50;28.10;92.80
38582;DHT22;24349;53.720;10.014;2023-06-24T13:59:15;28.70;1.00
38582;DHT22;24349;53.720;10.014;2023-06-24T14:01:41;28.70;1.00
38582;DHT22;24349;53.720;10.014;2023-06-24T14:04:07;28.40;1.00
38582;DHT22;24349;53.720;10.014;2023-06-24T14:06:33;28.60;1.00
38582;DHT22;24349;53.720;10.014;2023-06-24T14:08:58;29.00;99.90
38582;DHT22;24349;53.720;10.014;2023-06-24T14:11:24;29.30;99.90
38582;DHT22;24349;53.720;10.014;2023-06-24T14:13:49;29.60;99.90
38582;DHT22;24349;53.720;10.014;2023-06-24T14:16:16;29.20;99.90
38582;DHT22;24349;53.720;10.014;2023-06-24T14:18:42;28.40;99.90
38582;DHT22;24349;53.720;10.014;2023-06-24T14:21:08;28.30;99.90
38582;DHT22;24349;53.720;10.014;2023-06-24T14:23:34;28.80;99.90
38582;DHT22;24349;53.720;10.014;2023-06-24T14:26:00;29.40;99.90
38582;DHT22;24349;53.720;10.014;2023-06-24T14:28:26;29.70;99.90
38582;DHT22;24349;53.720;10.014;2023-06-24T14:30:52;29.50;99.90
38582;DHT22;24349;53.720;10.014;2023-06-24T14:33:18;29.60;99.90
38582;DHT22;24349;53.720;10.014;2023-06-24T14:35:44;29.30;99.90
38582;DHT22;24349;53.720;10.014;2023-06-24T14:38:09;29.50;99.90
38582;DHT22;24349;53.720;10.014;2023-06-24T14:40:35;29.50;99.90
38582;DHT22;24349;53.720;10.014;2023-06-24T14:43:01;29.30;99.90
38582;DHT22;24349;53.720;10.014;2023-06-24T14:45:27;29.00;99.90
38582;DHT22;24349;53.720;10.014;2023-06-24T14:47:53;29.00;99.90
38582;DHT22;24349;53.720;10.014;2023-06-24T14:50:19;29.50;99.90
38582;DHT22;24349;53.720;10.014;2023-06-24T14:52:44;29.20;99.90
38582;DHT22;24349;53.720;10.014;2023-06-24T14:55:10;28.60;99.90
38582;DHT22;24349;53.720;10.014;2023-06-24T14:57:36;28.20;99.90
38582;DHT22;24349;53.720;10.014;2023-06-24T15:00:03;28.10;99.90
38582;DHT22;24349;53.720;10.014;2023-06-24T15:02:29;28.30;99.90
38582;DHT22;24349;53.720;10.014;2023-06-24T15:04:55;28.80;99.90
38582;DHT22;24349;53.720;10.014;2023-06-24T15:07:20;29.00;99.90
38582;DHT22;24349;53.720;10.014;2023-06-24T15:09:46;28.90;99.90
38582;DHT22;24349;53.720;10.014;2023-06-24T15:12:12;28.50;99.90
38582;DHT22;24349;53.720;10.014;2023-06-24T15:14:37;28.20;99.90
38582;DHT22;24349;53.720;10.014;2023-06-24T15:17:04;27.90;99.90
38582;DHT22;24349;53.720;10.014;2023-06-24T15:19:30;27.90;99.90
38582;DHT22;24349;53.720;10.014;2023-06-24T15:21:55;28.40;99.90
38582;DHT22;24349;53.720;10.014;2023-06-24T15:24:21;28.70;99.90
38582;DHT22;24349;53.720;10.014;2023-06-24T15:26:47;28.60;99.90
38582;DHT22;24349;53.720;10.014;2023-06-24T15:29:12;28.30;99.90
38582;DHT22;24349;53.720;10.014;2023-06-24T15:31:40;28.10;99.90
38582;DHT22;24349;53.720;10.014;2023-06-24T15:34:06;28.30;99.90